ADDS TAF Data INFO
IDs: Format: Raw Decoded Include METARs

Data at: 0918 UTC 17 Oct 2017

KJAX 170856Z 35009KT 6SM BR BKN011 OVC021 19/17 A3008 RMK AO2 RAE03 SLP185 P0000 60026 T01940172 51009

KJAX 170538Z 1706/1806 02014G20KT P6SM VCSH SCT009 OVC012
  TEMPO 1706/1708 6SM -RA BR
  FM171400 03015G25KT P6SM SCT010 OVC015
  FM171800 03014G24KT P6SM SCT022 BKN030
  FM180000 03012KT P6SM SCT025 BKN040


KCRG 170853Z 03009G18KT 9SM -RA BKN016 OVC023 21/19 A3006 RMK AO2 SLP180 P0000 60011 T02110189 53003 $

KCRG 170538Z 1706/1806 02014G20KT P6SM VCSH SCT008 OVC015
  TEMPO 1706/1708 2SM +SHRA BR OVC008
  FM171400 03015G25KT P6SM VCSH SCT010 OVC015
  FM171800 03014G25KT P6SM SCT018 BKN025
  FM180000 03012KT P6SM SCT025 BKN040


KVQQ 170915Z AUTO 36008KT 10SM OVC018 18/18 A3008 RMK AO2

KVQQ 170700Z 1707/1806 36008KT 5SM -RA BKN007 OVC012
  FM171000 36010KT P6SM OVC015
  FM171400 03014G24KT P6SM SCT010 OVC015
  FM180000 02011KT P6SM SCT025 BKN040


KGNV 170853Z AUTO 04011G18KT 10SM OVC014 20/17 A3008 RMK AO2 SLP182 T02000172 52007

KGNV 170538Z 1706/1806 02008KT P6SM VCSH FEW025 SCT050 BKN100
  TEMPO 1706/1707 BKN025
  FM170700 01010KT P6SM VCSH OVC020
  FM171500 03012G22KT P6SM OVC015
  FM171800 04011G17KT P6SM SCT025 BKN040
  FM180000 03008KT P6SM SCT025


KSGJ 170856Z AUTO 03017G23KT 10SM BKN019 OVC024 23/20 A3004 RMK AO2 PK WND 02027/0824 RAE18 SLP171 P0000 60043 T02330200 53007

KSGJ 170847Z 1709/1806 03017G25KT P6SM -RA OVC015
  FM171400 02017G27KT 6SM SHRA SCT010 OVC020
  FM180100 03019G25KT P6SM VCSH SCT025 BKN035


KSSI 170853Z AUTO 02013G16KT 10SM OVC025 19/15 A3011 RMK AO2 SLP197 T01940150 51009

KSSI 170538Z 1706/1806 03014G22KT P6SM VCSH OVC018
  FM171000 02015G25KT P6SM SCT010 OVC020
  FM171400 03016G26KT P6SM SCT020 BKN030
  FM172300 03011G19KT P6SM SCT025 BKN040